sensor_id;sensor_type;location;lat;lon;timestamp;pressure;altitude;pressure_sealevel;temperature
37452;BMP280;23314;51.114;6.900;2024-03-29T00:01:01;99107.66;;;9.50
37452;BMP280;23314;51.114;6.900;2024-03-29T00:03:27;99089.00;;;9.50
37452;BMP280;23314;51.114;6.900;2024-03-29T00:05:52;99086.66;;;9.52
37452;BMP280;23314;51.114;6.900;2024-03-29T00:08:18;99089.66;;;9.54
37452;BMP280;23314;51.114;6.900;2024-03-29T00:10:47;99087.59;;;9.58
37452;BMP280;23314;51.114;6.900;2024-03-29T00:13:12;99085.66;;;9.58
37452;BMP280;23314;51.114;6.900;2024-03-29T00:15:38;99080.78;;;9.57
37452;BMP280;23314;51.114;6.900;2024-03-29T00:18:03;99072.03;;;9.56
37452;BMP280;23314;51.114;6.900;2024-03-29T00:20:28;99070.25;;;9.53
37452;BMP280;23314;51.114;6.900;2024-03-29T00:22:55;99062.72;;;9.52
37452;BMP280;23314;51.114;6.900;2024-03-29T00:25:20;99057.22;;;9.46
37452;BMP280;23314;51.114;6.900;2024-03-29T00:27:45;99050.97;;;9.40
37452;BMP280;23314;51.114;6.900;2024-03-29T00:30:11;99059.81;;;9.37
37452;BMP280;23314;51.114;6.900;2024-03-29T00:32:37;99052.69;;;9.34
37452;BMP280;23314;51.114;6.900;2024-03-29T00:35:02;99057.38;;;9.29
37452;BMP280;23314;51.114;6.900;2024-03-29T00:37:28;99066.84;;;9.30
37452;BMP280;23314;51.114;6.900;2024-03-29T00:39:53;99056.22;;;9.30
37452;BMP280;23314;51.114;6.900;2024-03-29T00:42:19;99058.00;;;9.34
37452;BMP280;23314;51.114;6.900;2024-03-29T00:44:45;99063.78;;;9.32
37452;BMP280;23314;51.114;6.900;2024-03-29T00:47:10;99063.78;;;9.32
37452;BMP280;23314;51.114;6.900;2024-03-29T00:49:36;99070.16;;;9.35
37452;BMP280;23314;51.114;6.900;2024-03-29T00:52:02;99075.06;;;9.36
37452;BMP280;23314;51.114;6.900;2024-03-29T00:54:27;99080.06;;;9.34
37452;BMP280;23314;51.114;6.900;2024-03-29T00:56:53;99081.63;;;9.31
37452;BMP280;23314;51.114;6.900;2024-03-29T00:59:18;99081.31;;;9.29
37452;BMP280;23314;51.114;6.900;2024-03-29T01:01:44;99077.94;;;9.29
37452;BMP280;23314;51.114;6.900;2024-03-29T01:04:10;99071.13;;;9.28
37452;BMP280;23314;51.114;6.900;2024-03-29T01:06:35;99059.31;;;9.29
37452;BMP280;23314;51.114;6.900;2024-03-29T01:09:01;99064.19;;;9.30
37452;BMP280;23314;51.114;6.900;2024-03-29T01:11:26;99059.19;;;9.32
37452;BMP280;23314;51.114;6.900;2024-03-29T01:13:52;99061.84;;;9.32
37452;BMP280;23314;51.114;6.900;2024-03-29T01:16:18;99062.47;;;9.37
37452;BMP280;23314;51.114;6.900;2024-03-29T01:18:43;99065.00;;;9.40
37452;BMP280;23314;51.114;6.900;2024-03-29T01:21:09;99075.94;;;9.42
37452;BMP280;23314;51.114;6.900;2024-03-29T01:23:34;99085.31;;;9.47
37452;BMP280;23314;51.114;6.900;2024-03-29T01:25:59;99099.22;;;9.51
37452;BMP280;23314;51.114;6.900;2024-03-29T01:28:25;99101.78;;;9.55
37452;BMP280;23314;51.114;6.900;2024-03-29T01:30:52;99100.06;;;9.61
37452;BMP280;23314;51.114;6.900;2024-03-29T01:33:18;99091.06;;;9.68
37452;BMP280;23314;51.114;6.900;2024-03-29T01:35:43;99096.84;;;9.75
37452;BMP280;23314;51.114;6.900;2024-03-29T01:38:08;99086.72;;;9.83
37452;BMP280;23314;51.114;6.900;2024-03-29T01:40:34;99099.63;;;9.94
37452;BMP280;23314;51.114;6.900;2024-03-29T01:43:00;99085.75;;;9.99
37452;BMP280;23314;51.114;6.900;2024-03-29T01:45:26;99071.41;;;10.06
37452;BMP280;23314;51.114;6.900;2024-03-29T01:47:53;99077.97;;;10.14
37452;BMP280;23314;51.114;6.900;2024-03-29T01:50:18;99076.66;;;10.19
37452;BMP280;23314;51.114;6.900;2024-03-29T01:52:44;99055.50;;;10.24
37452;BMP280;23314;51.114;6.900;2024-03-29T01:55:09;99047.22;;;10.32
37452;BMP280;23314;51.114;6.900;2024-03-29T01:57:35;99039.09;;;10.35
37452;BMP280;23314;51.114;6.900;2024-03-29T02:00:01;99026.69;;;10.41
37452;BMP280;23314;51.114;6.900;2024-03-29T02:02:30;99029.06;;;10.49
37452;BMP280;23314;51.114;6.900;2024-03-29T02:04:56;99038.41;;;10.53
37452;BMP280;23314;51.114;6.900;2024-03-29T02:07:22;99040.16;;;10.56
37452;BMP280;23314;51.114;6.900;2024-03-29T02:09:48;99031.31;;;10.59
37452;BMP280;23314;51.114;6.900;2024-03-29T02:12:13;99018.28;;;10.62
37452;BMP280;23314;51.114;6.900;2024-03-29T02:14:38;99017.06;;;10.63
37452;BMP280;23314;51.114;6.900;2024-03-29T02:17:05;99030.41;;;10.63
37452;BMP280;23314;51.114;6.900;2024-03-29T02:19:31;99033.38;;;10.65
37452;BMP280;23314;51.114;6.900;2024-03-29T02:21:59;99014.25;;;10.66
37452;BMP280;23314;51.114;6.900;2024-03-29T02:24:25;99008.94;;;10.66
37452;BMP280;23314;51.114;6.900;2024-03-29T02:26:53;98995.91;;;10.68
37452;BMP280;23314;51.114;6.900;2024-03-29T02:29:19;99000.50;;;10.68
37452;BMP280;23314;51.114;6.900;2024-03-29T02:31:44;99013.22;;;10.73
37452;BMP280;23314;51.114;6.900;2024-03-29T02:34:10;99004.50;;;10.72
37452;BMP280;23314;51.114;6.900;2024-03-29T02:36:35;99007.47;;;10.74
37452;BMP280;23314;51.114;6.900;2024-03-29T02:39:01;99011.63;;;10.75
37452;BMP280;23314;51.114;6.900;2024-03-29T02:41:26;99014.88;;;10.80
37452;BMP280;23314;51.114;6.900;2024-03-29T02:43:52;99012.91;;;10.80
37452;BMP280;23314;51.114;6.900;2024-03-29T02:46:17;99012.03;;;10.83
37452;BMP280;23314;51.114;6.900;2024-03-29T02:48:42;99007.03;;;10.85
37452;BMP280;23314;51.114;6.900;2024-03-29T02:51:08;99011.91;;;10.87
37452;BMP280;23314;51.114;6.900;2024-03-29T02:53:33;99011.19;;;10.86
37452;BMP280;23314;51.114;6.900;2024-03-29T02:55:58;99004.19;;;10.89
37452;BMP280;23314;51.114;6.900;2024-03-29T02:58:24;99009.50;;;10.89
37452;BMP280;23314;51.114;6.900;2024-03-29T03:00:49;99017.09;;;10.90
37452;BMP280;23314;51.114;6.900;2024-03-29T03:03:15;99003.31;;;10.92
37452;BMP280;23314;51.114;6.900;2024-03-29T03:05:41;98985.66;;;10.95
37452;BMP280;23314;51.114;6.900;2024-03-29T03:08:06;99000.47;;;10.96
37452;BMP280;23314;51.114;6.900;2024-03-29T03:10:50;99002.88;;;10.94
37452;BMP280;23314;51.114;6.900;2024-03-29T03:13:24;99008.22;;;10.94
37452;BMP280;23314;51.114;6.900;2024-03-29T03:15:49;99002.88;;;10.94
37452;BMP280;23314;51.114;6.900;2024-03-29T03:18:15;98995.28;;;10.92
37452;BMP280;23314;51.114;6.900;2024-03-29T03:20:40;98997.53;;;10.94
37452;BMP280;23314;51.114;6.900;2024-03-29T03:23:06;98991.00;;;10.95
37452;BMP280;23314;51.114;6.900;2024-03-29T03:25:32;98981.38;;;10.97
37452;BMP280;23314;51.114;6.900;2024-03-29T03:27:57;98976.75;;;10.98
37452;BMP280;23314;51.114;6.900;2024-03-29T03:30:22;98969.06;;;11.00
37452;BMP280;23314;51.114;6.900;2024-03-29T03:32:48;98964.91;;;10.99
37452;BMP280;23314;51.114;6.900;2024-03-29T03:35:13;98967.16;;;11.00
37452;BMP280;23314;51.114;6.900;2024-03-29T03:37:39;98970.53;;;11.01
37452;BMP280;23314;51.114;6.900;2024-03-29T03:40:05;98973.22;;;11.01
37452;BMP280;23314;51.114;6.900;2024-03-29T03:42:31;98975.88;;;11.01
37452;BMP280;23314;51.114;6.900;2024-03-29T03:44:57;98975.88;;;11.01
37452;BMP280;23314;51.114;6.900;2024-03-29T03:47:22;98976.63;;;11.01
37452;BMP280;23314;51.114;6.900;2024-03-29T03:49:47;98974.84;;;10.98
37452;BMP280;23314;51.114;6.900;2024-03-29T03:52:13;98971.72;;;11.00
37452;BMP280;23314;51.114;6.900;2024-03-29T03:54:38;98970.22;;;10.99
37452;BMP280;23314;51.114;6.900;2024-03-29T03:57:04;98978.69;;;10.97
37452;BMP280;23314;51.114;6.900;2024-03-29T03:59:29;98981.38;;;10.97
37452;BMP280;23314;51.114;6.900;2024-03-29T04:01:54;98980.59;;;10.97
37452;BMP280;23314;51.114;6.900;2024-03-29T04:04:20;98986.69;;;10.97
37452;BMP280;23314;51.114;6.900;2024-03-29T04:06:45;98993.94;;;10.97
37452;BMP280;23314;51.114;6.900;2024-03-29T04:09:14;99005.38;;;10.97
37452;BMP280;23314;51.114;6.900;2024-03-29T04:11:41;98982.53;;;10.96
37452;BMP280;23314;51.114;6.900;2024-03-29T04:14:06;98985.94;;;10.97
37452;BMP280;23314;51.114;6.900;2024-03-29T04:16:31;98981.38;;;10.97
37452;BMP280;23314;51.114;6.900;2024-03-29T04:18:57;98980.59;;;10.97
37452;BMP280;23314;51.114;6.900;2024-03-29T04:21:22;98972.59;;;10.97
37452;BMP280;23314;51.114;6.900;2024-03-29T04:23:47;98964.16;;;10.98
37452;BMP280;23314;51.114;6.900;2024-03-29T04:26:13;98957.66;;;10.99
37452;BMP280;23314;51.114;6.900;2024-03-29T04:28:38;98955.00;;;10.99
37452;BMP280;23314;51.114;6.900;2024-03-29T04:31:03;98961.06;;;11.00
37452;BMP280;23314;51.114;6.900;2024-03-29T04:33:29;98963.72;;;11.00
37452;BMP280;23314;51.114;6.900;2024-03-29T04:35:58;98966.09;;;10.98
37452;BMP280;23314;51.114;6.900;2024-03-29T04:38:26;98971.13;;;10.96
37452;BMP280;23314;51.114;6.900;2024-03-29T04:40:53;98969.22;;;10.96
37452;BMP280;23314;51.114;6.900;2024-03-29T04:43:19;98970.88;;;10.94
37452;BMP280;23314;51.114;6.900;2024-03-29T04:45:45;98974.41;;;10.90
37452;BMP280;23314;51.114;6.900;2024-03-29T04:48:11;98969.50;;;10.89
37452;BMP280;23314;51.114;6.900;2024-03-29T04:50:37;98944.94;;;10.85
37452;BMP280;23314;51.114;6.900;2024-03-29T04:53:02;98940.91;;;10.80
37452;BMP280;23314;51.114;6.900;2024-03-29T04:55:27;98958.28;;;10.75
37452;BMP280;23314;51.114;6.900;2024-03-29T04:57:53;98955.75;;;10.72
37452;BMP280;23314;51.114;6.900;2024-03-29T05:00:18;98958.88;;;10.70
37452;BMP280;23314;51.114;6.900;2024-03-29T05:02:43;98953.69;;;10.67
37452;BMP280;23314;51.114;6.900;2024-03-29T05:05:09;98953.81;;;10.63
37452;BMP280;23314;51.114;6.900;2024-03-29T05:07:34;98944.06;;;10.60
37452;BMP280;23314;51.114;6.900;2024-03-29T05:09:59;98920.22;;;10.56
37452;BMP280;23314;51.114;6.900;2024-03-29T05:12:25;98930.56;;;10.54
37452;BMP280;23314;51.114;6.900;2024-03-29T05:14:50;98937.84;;;10.54
37452;BMP280;23314;51.114;6.900;2024-03-29T05:17:16;98931.47;;;10.51
37452;BMP280;23314;51.114;6.900;2024-03-29T05:19:42;98938.00;;;10.50
37452;BMP280;23314;51.114;6.900;2024-03-29T05:22:08;98944.94;;;10.48
37452;BMP280;23314;51.114;6.900;2024-03-29T05:24:33;98944.66;;;10.46
37452;BMP280;23314;51.114;6.900;2024-03-29T05:26:58;98944.38;;;10.43
37452;BMP280;23314;51.114;6.900;2024-03-29T05:29:24;98940.34;;;10.39
37452;BMP280;23314;51.114;6.900;2024-03-29T05:31:49;98928.66;;;10.36
37452;BMP280;23314;51.114;6.900;2024-03-29T05:34:14;98931.47;;;10.33
37452;BMP280;23314;51.114;6.900;2024-03-29T05:36:40;98935.00;;;10.30
37452;BMP280;23314;51.114;6.900;2024-03-29T05:39:05;98941.53;;;10.28
37452;BMP280;23314;51.114;6.900;2024-03-29T05:41:31;98961.38;;;10.27
37452;BMP280;23314;51.114;6.900;2024-03-29T05:43:57;98939.75;;;10.25
37452;BMP280;23314;51.114;6.900;2024-03-29T05:46:23;98943.75;;;10.21
37452;BMP280;23314;51.114;6.900;2024-03-29T05:48:48;98922.16;;;10.19
37452;BMP280;23314;51.114;6.900;2024-03-29T05:51:13;98917.69;;;10.16
37452;BMP280;23314;51.114;6.900;2024-03-29T05:53:39;98911.31;;;10.13
37452;BMP280;23314;51.114;6.900;2024-03-29T05:56:05;98920.50;;;10.12
37452;BMP280;23314;51.114;6.900;2024-03-29T05:58:31;98915.34;;;10.08
37452;BMP280;23314;51.114;6.900;2024-03-29T06:00:56;98905.09;;;10.07
37452;BMP280;23314;51.114;6.900;2024-03-29T06:03:22;98899.47;;;10.05
37452;BMP280;23314;51.114;6.900;2024-03-29T06:05:48;98896.50;;;10.03
37452;BMP280;23314;51.114;6.900;2024-03-29T06:08:13;98895.03;;;10.02
37452;BMP280;23314;51.114;6.900;2024-03-29T06:10:38;98896.22;;;10.01
37452;BMP280;23314;51.114;6.900;2024-03-29T06:13:04;98894.16;;;10.05
37452;BMP280;23314;51.114;6.900;2024-03-29T06:15:34;98888.41;;;10.06
37452;BMP280;23314;51.114;6.900;2024-03-29T06:18:18;98903.94;;;10.08
37452;BMP280;23314;51.114;6.900;2024-03-29T06:20:47;98898.19;;;10.09
37452;BMP280;23314;51.114;6.900;2024-03-29T06:23:13;98898.00;;;10.13
37452;BMP280;23314;51.114;6.900;2024-03-29T06:25:39;98900.53;;;10.17
37452;BMP280;23314;51.114;6.900;2024-03-29T06:28:04;98894.31;;;10.20
37452;BMP280;23314;51.114;6.900;2024-03-29T06:30:29;98890.75;;;10.23
37452;BMP280;23314;51.114;6.900;2024-03-29T06:32:55;98897.44;;;10.27
37452;BMP280;23314;51.114;6.900;2024-03-29T06:35:20;98904.09;;;10.32
37452;BMP280;23314;51.114;6.900;2024-03-29T06:37:47;98899.63;;;10.38
37452;BMP280;23314;51.114;6.900;2024-03-29T06:40:12;98895.66;;;10.43
37452;BMP280;23314;51.114;6.900;2024-03-29T06:42:38;98894.31;;;10.48
37452;BMP280;23314;51.114;6.900;2024-03-29T06:45:03;98896.41;;;10.53
37452;BMP280;23314;51.114;6.900;2024-03-29T06:47:31;98888.97;;;10.57
37452;BMP280;23314;51.114;6.900;2024-03-29T06:49:56;98903.47;;;10.65
37452;BMP280;23314;51.114;6.900;2024-03-29T06:52:22;98908.81;;;10.74
37452;BMP280;23314;51.114;6.900;2024-03-29T06:54:47;98903.16;;;10.82
37452;BMP280;23314;51.114;6.900;2024-03-29T06:57:12;98894.69;;;10.92
37452;BMP280;23314;51.114;6.900;2024-03-29T06:59:41;98891.56;;;11.03
37452;BMP280;23314;51.114;6.900;2024-03-29T07:02:06;98897.44;;;11.17
37452;BMP280;23314;51.114;6.900;2024-03-29T07:04:31;98899.63;;;11.28
37452;BMP280;23314;51.114;6.900;2024-03-29T07:06:56;98894.22;;;11.37
37452;BMP280;23314;51.114;6.900;2024-03-29T07:09:22;98897.44;;;11.50
37452;BMP280;23314;51.114;6.900;2024-03-29T07:11:49;98900.97;;;11.56
37452;BMP280;23314;51.114;6.900;2024-03-29T07:14:16;98896.63;;;11.59
37452;BMP280;23314;51.114;6.900;2024-03-29T07:16:42;98900.63;;;11.64
37452;BMP280;23314;51.114;6.900;2024-03-29T07:19:07;98901.16;;;11.68
37452;BMP280;23314;51.114;6.900;2024-03-29T07:21:33;98905.59;;;11.80
37452;BMP280;23314;51.114;6.900;2024-03-29T07:23:58;98908.66;;;11.88
37452;BMP280;23314;51.114;6.900;2024-03-29T07:26:23;98907.56;;;11.95
37452;BMP280;23314;51.114;6.900;2024-03-29T07:28:49;98915.03;;;12.05
37452;BMP280;23314;51.114;6.900;2024-03-29T07:31:14;98920.91;;;12.19
37452;BMP280;23314;51.114;6.900;2024-03-29T07:33:39;98922.75;;;12.28
37452;BMP280;23314;51.114;6.900;2024-03-29T07:36:05;98925.19;;;12.41
37452;BMP280;23314;51.114;6.900;2024-03-29T07:38:31;98928.50;;;12.50
37452;BMP280;23314;51.114;6.900;2024-03-29T07:40:56;98940.97;;;12.53
37452;BMP280;23314;51.114;6.900;2024-03-29T07:43:22;98940.75;;;12.57
37452;BMP280;23314;51.114;6.900;2024-03-29T07:45:48;98945.28;;;12.66
37452;BMP280;23314;51.114;6.900;2024-03-29T07:48:17;98941.63;;;12.78
37452;BMP280;23314;51.114;6.900;2024-03-29T07:50:44;98946.69;;;12.91
37452;BMP280;23314;51.114;6.900;2024-03-29T07:53:10;98945.84;;;13.00
37452;BMP280;23314;51.114;6.900;2024-03-29T07:55:37;98951.28;;;13.05
37452;BMP280;23314;51.114;6.900;2024-03-29T07:58:03;98946.69;;;13.06
37452;BMP280;23314;51.114;6.900;2024-03-29T08:00:31;98942.81;;;13.07
37452;BMP280;23314;51.114;6.900;2024-03-29T08:02:57;98934.78;;;13.07
37452;BMP280;23314;51.114;6.900;2024-03-29T08:05:23;98937.97;;;13.11
37452;BMP280;23314;51.114;6.900;2024-03-29T08:07:48;98935.13;;;13.15
37452;BMP280;23314;51.114;6.900;2024-03-29T08:10:13;98944.38;;;13.14
37452;BMP280;23314;51.114;6.900;2024-03-29T08:12:39;98949.44;;;13.12
37452;BMP280;23314;51.114;6.900;2024-03-29T08:15:04;98959.38;;;13.11
37452;BMP280;23314;51.114;6.900;2024-03-29T08:17:30;98947.22;;;13.10
37452;BMP280;23314;51.114;6.900;2024-03-29T08:19:55;98961.63;;;13.13
37452;BMP280;23314;51.114;6.900;2024-03-29T08:22:21;98966.50;;;13.14
37452;BMP280;23314;51.114;6.900;2024-03-29T08:24:46;98953.59;;;13.13
37452;BMP280;23314;51.114;6.900;2024-03-29T08:27:11;98949.25;;;13.15
37452;BMP280;23314;51.114;6.900;2024-03-29T08:29:37;98941.75;;;13.19
37452;BMP280;23314;51.114;6.900;2024-03-29T08:32:03;98942.31;;;13.24
37452;BMP280;23314;51.114;6.900;2024-03-29T08:34:28;98938.06;;;13.32
37452;BMP280;23314;51.114;6.900;2024-03-29T08:37:00;98944.56;;;13.46
37452;BMP280;23314;51.114;6.900;2024-03-29T08:39:25;98948.31;;;13.54
37452;BMP280;23314;51.114;6.900;2024-03-29T08:41:51;98948.59;;;13.56
37452;BMP280;23314;51.114;6.900;2024-03-29T08:44:16;98938.44;;;13.60
37452;BMP280;23314;51.114;6.900;2024-03-29T08:46:41;98942.66;;;13.67
37452;BMP280;23314;51.114;6.900;2024-03-29T08:49:06;98942.78;;;13.78
37452;BMP280;23314;51.114;6.900;2024-03-29T08:51:32;98959.00;;;13.90
37452;BMP280;23314;51.114;6.900;2024-03-29T08:53:57;98969.06;;;13.95
37452;BMP280;23314;51.114;6.900;2024-03-29T08:56:23;98979.31;;;13.96
37452;BMP280;23314;51.114;6.900;2024-03-29T08:58:48;98974.47;;;14.00
37452;BMP280;23314;51.114;6.900;2024-03-29T09:01:15;98983.34;;;14.07
37452;BMP280;23314;51.114;6.900;2024-03-29T09:03:40;98989.03;;;14.14
37452;BMP280;23314;51.114;6.900;2024-03-29T09:06:06;98989.59;;;14.24
37452;BMP280;23314;51.114;6.900;2024-03-29T09:08:31;99000.00;;;14.37
37452;BMP280;23314;51.114;6.900;2024-03-29T09:10:56;99004.16;;;14.38
37452;BMP280;23314;51.114;6.900;2024-03-29T09:13:22;98997.19;;;14.46
37452;BMP280;23314;51.114;6.900;2024-03-29T09:15:47;99003.56;;;14.54
37452;BMP280;23314;51.114;6.900;2024-03-29T09:18:14;98993.66;;;14.66
37452;BMP280;23314;51.114;6.900;2024-03-29T09:20:58;98984.31;;;14.82
37452;BMP280;23314;51.114;6.900;2024-03-29T09:23:25;98978.13;;;15.02
37452;BMP280;23314;51.114;6.900;2024-03-29T09:25:51;98979.72;;;15.20
37452;BMP280;23314;51.114;6.900;2024-03-29T09:28:16;98986.47;;;15.42
37452;BMP280;23314;51.114;6.900;2024-03-29T09:30:42;98986.56;;;15.59
37452;BMP280;23314;51.114;6.900;2024-03-29T09:33:07;98988.13;;;15.89
37452;BMP280;23314;51.114;6.900;2024-03-29T09:35:35;98985.06;;;16.18
37452;BMP280;23314;51.114;6.900;2024-03-29T09:38:00;98994.38;;;16.40
37452;BMP280;23314;51.114;6.900;2024-03-29T09:40:26;99002.94;;;16.56
37452;BMP280;23314;51.114;6.900;2024-03-29T09:42:59;99021.56;;;16.76
37452;BMP280;23314;51.114;6.900;2024-03-29T09:45:30;99017.63;;;16.83
37452;BMP280;23314;51.114;6.900;2024-03-29T09:47:59;99011.78;;;16.84
37452;BMP280;23314;51.114;6.900;2024-03-29T09:50:25;99010.56;;;16.74
37452;BMP280;23314;51.114;6.900;2024-03-29T09:52:51;99010.56;;;16.68
37452;BMP280;23314;51.114;6.900;2024-03-29T09:55:18;99021.06;;;16.66
37452;BMP280;23314;51.114;6.900;2024-03-29T09:57:45;99022.28;;;16.71
37452;BMP280;23314;51.114;6.900;2024-03-29T10:00:11;99013.00;;;16.78
37452;BMP280;23314;51.114;6.900;2024-03-29T10:02:36;99029.91;;;16.90
37452;BMP280;23314;51.114;6.900;2024-03-29T10:05:03;99034.28;;;17.10
37452;BMP280;23314;51.114;6.900;2024-03-29T10:07:32;99041.88;;;17.28
37452;BMP280;23314;51.114;6.900;2024-03-29T10:10:00;99052.16;;;17.41
37452;BMP280;23314;51.114;6.900;2024-03-29T10:12:27;99054.06;;;17.52
37452;BMP280;23314;51.114;6.900;2024-03-29T10:14:53;99047.16;;;17.68
37452;BMP280;23314;51.114;6.900;2024-03-29T10:17:20;99046.63;;;17.75
37452;BMP280;23314;51.114;6.900;2024-03-29T10:19:46;99043.72;;;17.73
37452;BMP280;23314;51.114;6.900;2024-03-29T10:22:12;99051.28;;;17.80
37452;BMP280;23314;51.114;6.900;2024-03-29T10:24:38;99052.25;;;17.88
37452;BMP280;23314;51.114;6.900;2024-03-29T10:27:04;99059.81;;;17.90
37452;BMP280;23314;51.114;6.900;2024-03-29T10:29:29;99063.75;;;17.89
37452;BMP280;23314;51.114;6.900;2024-03-29T10:31:55;99054.22;;;17.82
37452;BMP280;23314;51.114;6.900;2024-03-29T10:34:21;99064.31;;;17.59
37452;BMP280;23314;51.114;6.900;2024-03-29T10:36:47;99062.41;;;17.54
37452;BMP280;23314;51.114;6.900;2024-03-29T10:39:13;99067.06;;;17.48
37452;BMP280;23314;51.114;6.900;2024-03-29T10:41:43;99061.22;;;17.44
37452;BMP280;23314;51.114;6.900;2024-03-29T10:44:12;99066.09;;;17.34
37452;BMP280;23314;51.114;6.900;2024-03-29T10:46:38;99056.31;;;17.25
37452;BMP280;23314;51.114;6.900;2024-03-29T10:49:09;99061.69;;;17.31
37452;BMP280;23314;51.114;6.900;2024-03-29T10:51:39;99053.81;;;17.44
37452;BMP280;23314;51.114;6.900;2024-03-29T10:54:05;99063.56;;;17.70
37452;BMP280;23314;51.114;6.900;2024-03-29T10:56:34;99067.13;;;18.01
37452;BMP280;23314;51.114;6.900;2024-03-29T10:59:06;99074.84;;;18.27
37452;BMP280;23314;51.114;6.900;2024-03-29T11:01:34;99076.25;;;18.39
37452;BMP280;23314;51.114;6.900;2024-03-29T11:04:09;99073.16;;;18.66
37452;BMP280;23314;51.114;6.900;2024-03-29T11:06:38;99072.41;;;18.65
37452;BMP280;23314;51.114;6.900;2024-03-29T11:09:07;99082.03;;;18.61
37452;BMP280;23314;51.114;6.900;2024-03-29T11:11:34;99066.34;;;18.53
37452;BMP280;23314;51.114;6.900;2024-03-29T11:14:10;99049.81;;;18.63
37452;BMP280;23314;51.114;6.900;2024-03-29T11:16:39;99063.06;;;18.97
37452;BMP280;23314;51.114;6.900;2024-03-29T11:19:06;99078.09;;;19.22
37452;BMP280;23314;51.114;6.900;2024-03-29T11:21:32;99068.59;;;19.40
37452;BMP280;23314;51.114;6.900;2024-03-29T11:23:58;99075.25;;;19.58
37452;BMP280;23314;51.114;6.900;2024-03-29T11:26:28;99095.44;;;19.76
37452;BMP280;23314;51.114;6.900;2024-03-29T11:28:54;99098.25;;;19.90
37452;BMP280;23314;51.114;6.900;2024-03-29T11:31:23;99099.00;;;20.09
37452;BMP280;23314;51.114;6.900;2024-03-29T11:33:49;99099.22;;;20.11
37452;BMP280;23314;51.114;6.900;2024-03-29T11:36:19;99096.41;;;19.98
37452;BMP280;23314;51.114;6.900;2024-03-29T11:38:47;99103.22;;;19.86
37452;BMP280;23314;51.114;6.900;2024-03-29T11:41:18;99107.16;;;19.85
37452;BMP280;23314;51.114;6.900;2024-03-29T11:43:44;99107.03;;;19.77
37452;BMP280;23314;51.114;6.900;2024-03-29T11:46:12;99089.13;;;19.74
37452;BMP280;23314;51.114;6.900;2024-03-29T11:48:38;99096.84;;;19.83
37452;BMP280;23314;51.114;6.900;2024-03-29T11:51:05;99088.59;;;19.94
37452;BMP280;23314;51.114;6.900;2024-03-29T11:53:31;99101.91;;;19.92
37452;BMP280;23314;51.114;6.900;2024-03-29T11:56:01;99106.47;;;19.59
37452;BMP280;23314;51.114;6.900;2024-03-29T11:58:31;99125.34;;;19.40
37452;BMP280;23314;51.114;6.900;2024-03-29T12:00:58;99114.94;;;19.50
37452;BMP280;23314;51.114;6.900;2024-03-29T12:03:25;99128.56;;;19.64
37452;BMP280;23314;51.114;6.900;2024-03-29T12:05:52;99140.97;;;19.78
37452;BMP280;23314;51.114;6.900;2024-03-29T12:08:20;99155.47;;;20.00
37452;BMP280;23314;51.114;6.900;2024-03-29T12:10:45;99155.09;;;20.09
37452;BMP280;23314;51.114;6.900;2024-03-29T12:13:10;99142.56;;;20.06
37452;BMP280;23314;51.114;6.900;2024-03-29T12:15:36;99147.63;;;19.96
37452;BMP280;23314;51.114;6.900;2024-03-29T12:18:03;99163.84;;;19.96
37452;BMP280;23314;51.114;6.900;2024-03-29T12:20:31;99182.00;;;20.01
37452;BMP280;23314;51.114;6.900;2024-03-29T12:23:00;99186.94;;;19.97
37452;BMP280;23314;51.114;6.900;2024-03-29T12:25:30;99193.63;;;19.96
37452;BMP280;23314;51.114;6.900;2024-03-29T12:27:57;99176.75;;;19.84
37452;BMP280;23314;51.114;6.900;2024-03-29T12:30:23;99173.19;;;19.76
37452;BMP280;23314;51.114;6.900;2024-03-29T12:33:02;99181.91;;;19.63
37452;BMP280;23314;51.114;6.900;2024-03-29T12:35:29;99177.34;;;19.52
37452;BMP280;23314;51.114;6.900;2024-03-29T12:38:03;99169.34;;;19.41
37452;BMP280;23314;51.114;6.900;2024-03-29T12:40:31;99173.91;;;19.21
37452;BMP280;23314;51.114;6.900;2024-03-29T12:43:07;99168.38;;;19.08
37452;BMP280;23314;51.114;6.900;2024-03-29T12:45:36;99175.81;;;18.96
37452;BMP280;23314;51.114;6.900;2024-03-29T12:48:01;99168.56;;;18.85
37452;BMP280;23314;51.114;6.900;2024-03-29T12:50:29;99173.53;;;18.70
37452;BMP280;23314;51.114;6.900;2024-03-29T12:52:59;99193.00;;;18.57
37452;BMP280;23314;51.114;6.900;2024-03-29T12:55:25;99190.34;;;18.46
37452;BMP280;23314;51.114;6.900;2024-03-29T12:57:53;99194.53;;;18.41
37452;BMP280;23314;51.114;6.900;2024-03-29T13:00:20;99195.31;;;18.36
37452;BMP280;23314;51.114;6.900;2024-03-29T13:02:45;99188.22;;;18.33
37452;BMP280;23314;51.114;6.900;2024-03-29T13:05:11;99177.09;;;18.48
37452;BMP280;23314;51.114;6.900;2024-03-29T13:07:36;99173.25;;;18.79
37452;BMP280;23314;51.114;6.900;2024-03-29T13:10:02;99165.22;;;19.04
37452;BMP280;23314;51.114;6.900;2024-03-29T13:12:31;99163.34;;;19.23
37452;BMP280;23314;51.114;6.900;2024-03-29T13:14:56;99178.50;;;19.32
37452;BMP280;23314;51.114;6.900;2024-03-29T13:17:21;99176.47;;;19.38
37452;BMP280;23314;51.114;6.900;2024-03-29T13:19:47;99180.91;;;19.36
37452;BMP280;23314;51.114;6.900;2024-03-29T13:22:12;99197.22;;;19.24
37452;BMP280;23314;51.114;6.900;2024-03-29T13:24:37;99198.31;;;19.10
37452;BMP280;23314;51.114;6.900;2024-03-29T13:27:03;99198.84;;;19.08
37452;BMP280;23314;51.114;6.900;2024-03-29T13:29:29;99197.06;;;19.17
37452;BMP280;23314;51.114;6.900;2024-03-29T13:31:55;99194.78;;;19.26
37452;BMP280;23314;51.114;6.900;2024-03-29T13:34:22;99202.91;;;19.51
37452;BMP280;23314;51.114;6.900;2024-03-29T13:36:47;99218.41;;;19.81
37452;BMP280;23314;51.114;6.900;2024-03-29T13:39:13;99218.50;;;19.94
37452;BMP280;23314;51.114;6.900;2024-03-29T13:41:39;99213.38;;;20.10
37452;BMP280;23314;51.114;6.900;2024-03-29T13:44:05;99226.97;;;20.29
37452;BMP280;23314;51.114;6.900;2024-03-29T13:46:35;99226.84;;;20.40
37452;BMP280;23314;51.114;6.900;2024-03-29T13:49:01;99210.78;;;20.42
37452;BMP280;23314;51.114;6.900;2024-03-29T13:51:27;99205.81;;;20.46
37452;BMP280;23314;51.114;6.900;2024-03-29T13:53:53;99194.53;;;20.42
37452;BMP280;23314;51.114;6.900;2024-03-29T13:56:19;99198.50;;;20.22
37452;BMP280;23314;51.114;6.900;2024-03-29T13:58:45;99192.22;;;19.89
37452;BMP280;23314;51.114;6.900;2024-03-29T14:01:10;99205.03;;;19.64
37452;BMP280;23314;51.114;6.900;2024-03-29T14:03:36;99202.91;;;19.51
37452;BMP280;23314;51.114;6.900;2024-03-29T14:06:01;99184.50;;;19.74